createdAt,value
2023-03-26T00:02:24.628Z,51.46
2023-03-26T00:05:38.681Z,51.46
2023-03-26T00:08:50.267Z,51.71
2023-03-26T00:12:01.219Z,51.51
2023-03-26T00:15:26.337Z,51.71
2023-03-26T00:18:54.239Z,51.67
2023-03-26T00:22:01.085Z,51.67
2023-03-26T00:25:20.482Z,52.79
2023-03-26T00:32:22.633Z,51.60
2023-03-26T00:35:32.358Z,51.47
2023-03-26T00:38:39.588Z,51.63
2023-03-26T00:41:46.542Z,50.50
2023-03-26T00:44:55.272Z,50.65
2023-03-26T00:48:02.831Z,50.79
2023-03-26T00:51:15.886Z,51.72
2023-03-26T00:54:24.089Z,51.10
2023-03-26T00:57:36.917Z,51.66
2023-03-26T01:00:51.643Z,51.67
2023-03-26T01:04:31.452Z,51.28
2023-03-26T01:07:43.234Z,52.02
2023-03-26T01:11:15.249Z,51.93
2023-03-26T01:18:26.590Z,52.11
2023-03-26T06:25:00.996Z,52.09
2023-03-26T06:29:06.218Z,51.78
2023-03-26T06:37:27.073Z,51.55
2023-03-26T06:40:39.917Z,51.08
2023-03-26T06:44:05.949Z,51.26
2023-03-26T06:47:15.764Z,51.22
2023-03-26T06:50:39.963Z,51.28
2023-03-26T06:53:55.755Z,51.89
2023-03-26T06:57:22.716Z,51.74
2023-03-26T07:00:48.152Z,51.89
2023-03-26T07:04:20.185Z,51.99
2023-03-26T07:07:47.482Z,52.11
2023-03-26T07:11:16.879Z,51.73
2023-03-26T07:14:57.886Z,51.78
2023-03-26T07:18:27.398Z,51.74
2023-03-26T07:21:36.018Z,51.51
2023-03-26T07:24:49.352Z,51.60
2023-03-26T07:28:32.982Z,51.63
2023-03-26T07:31:57.888Z,51.55
2023-03-26T07:35:16.963Z,51.00
2023-03-26T07:39:14.077Z,51.34
2023-03-26T07:43:09.403Z,50.91
2023-03-26T07:46:49.071Z,50.47
2023-03-26T07:50:20.129Z,50.38
2023-03-26T07:53:47.491Z,49.11
2023-03-26T07:57:30.283Z,48.41
2023-03-26T08:01:10.349Z,48.28
2023-03-26T08:05:04.478Z,48.04
2023-03-26T08:08:48.252Z,45.32
2023-03-26T08:12:42.467Z,43.57
2023-03-26T08:16:05.849Z,43.51
2023-03-26T08:20:06.092Z,43.14
2023-03-26T08:23:27.924Z,42.54
2023-03-26T08:26:55.468Z,41.38
2023-03-26T08:30:14.984Z,42.61
2023-03-26T08:33:30.117Z,42.95
2023-03-26T08:36:38.802Z,43.74
2023-03-26T08:39:46.258Z,42.76
2023-03-26T08:43:39.036Z,42.61
2023-03-26T08:47:41.740Z,42.50
2023-03-26T08:51:40.628Z,42.31
2023-03-26T08:55:35.489Z,39.05
2023-03-26T08:59:40.748Z,36.96
2023-03-26T09:03:38.197Z,37.00
2023-03-26T09:07:28.455Z,37.42
2023-03-26T09:11:25.048Z,38.03
2023-03-26T09:15:27.406Z,36.11
2023-03-26T09:19:09.166Z,38.59
2023-03-26T09:23:14.973Z,41.27
2023-03-26T09:26:50.555Z,38.71
2023-03-26T09:30:45.072Z,39.90
2023-03-26T09:34:05.338Z,40.18
2023-03-26T09:37:56.805Z,39.47
2023-03-26T09:41:18.576Z,38.72
2023-03-26T09:45:15.368Z,39.80
2023-03-26T09:49:01.061Z,40.28
2023-03-26T09:52:28.864Z,40.86
2023-03-26T09:56:00.220Z,44.00
2023-03-26T09:59:38.050Z,45.54
2023-03-26T10:03:25.704Z,47.14
2023-03-26T10:06:56.012Z,47.65
2023-03-26T10:10:15.846Z,47.80
2023-03-26T10:13:41.894Z,48.51
2023-03-26T10:17:13.716Z,47.95
2023-03-26T10:20:47.808Z,47.68
2023-03-26T10:24:29.580Z,47.17
2023-03-26T10:27:50.945Z,46.50
2023-03-26T10:31:43.320Z,47.23
2023-03-26T10:35:13.079Z,44.13
2023-03-26T10:38:45.271Z,41.43
2023-03-26T10:42:10.725Z,38.96
2023-03-26T10:45:39.901Z,34.98
2023-03-26T10:49:25.569Z,31.83
2023-03-26T10:52:44.840Z,31.92
2023-03-26T10:56:07.084Z,30.27
2023-03-26T10:59:17.846Z,32.59
2023-03-26T11:02:33.629Z,33.67
2023-03-26T11:05:57.658Z,33.20
2023-03-26T11:09:28.473Z,32.25
2023-03-26T11:12:52.079Z,31.36
2023-03-26T11:16:09.941Z,30.78
2023-03-26T11:19:29.535Z,31.12
2023-03-26T11:22:56.702Z,31.42
2023-03-26T11:26:18.553Z,31.37
2023-03-26T11:29:52.407Z,29.51
2023-03-26T11:33:06.617Z,28.22
2023-03-26T11:36:20.815Z,26.44
2023-03-26T11:39:40.798Z,24.47
2023-03-26T11:42:48.409Z,24.27
2023-03-26T11:45:58.294Z,25.12
2023-03-26T11:49:13.927Z,25.76
2023-03-26T11:52:20.890Z,27.95
2023-03-26T11:55:29.178Z,27.81
2023-03-26T11:58:48.526Z,29.23
2023-03-26T12:02:02.442Z,29.16
2023-03-26T12:05:22.948Z,28.93
2023-03-26T12:08:37.964Z,28.29
2023-03-26T12:11:48.493Z,29.05
2023-03-26T12:14:55.038Z,30.50
2023-03-26T12:18:28.063Z,31.44
2023-03-26T12:21:46.918Z,31.09
2023-03-26T12:25:07.931Z,32.13
2023-03-26T12:28:23.697Z,33.28
2023-03-26T12:31:30.634Z,33.17
2023-03-26T12:34:42.662Z,33.69
2023-03-26T12:37:51.968Z,35.23
2023-03-26T12:44:42.086Z,34.99
2023-03-26T12:44:58.747Z,35.70
2023-03-26T12:48:13.138Z,35.08
2023-03-26T12:51:43.473Z,34.98
2023-03-26T12:55:12.290Z,34.60
2023-03-26T12:58:51.653Z,33.76
2023-03-26T13:02:22.036Z,33.31
2023-03-26T13:05:52.134Z,33.34
2023-03-26T13:09:44.007Z,33.96
2023-03-26T13:13:14.002Z,32.94
2023-03-26T13:16:38.497Z,33.17
2023-03-26T13:20:12.632Z,34.28
2023-03-26T13:23:36.445Z,32.05
2023-03-26T13:27:07.857Z,32.11
2023-03-26T13:30:32.475Z,31.36
2023-03-26T13:33:52.587Z,30.42
2023-03-26T13:37:16.378Z,29.22
2023-03-26T13:40:39.610Z,29.40
2023-03-26T13:44:11.496Z,30.00
2023-03-26T13:47:34.021Z,30.71
2023-03-26T13:50:51.267Z,31.37
2023-03-26T13:54:14.450Z,31.66
2023-03-26T13:57:32.230Z,32.48
2023-03-26T14:01:04.184Z,32.48
2023-03-26T14:04:32.707Z,33.01
2023-03-26T14:07:56.275Z,33.30
2023-03-26T14:11:19.134Z,33.87
2023-03-26T14:14:41.711Z,34.73
2023-03-26T14:18:01.584Z,34.88
2023-03-26T14:21:42.418Z,35.02
2023-03-26T14:25:14.589Z,35.07
2023-03-26T14:28:59.852Z,34.46
2023-03-26T14:32:30.933Z,34.58
2023-03-26T14:35:57.541Z,34.98
2023-03-26T14:39:43.266Z,35.76
2023-03-26T14:43:08.215Z,36.14
2023-03-26T14:46:44.006Z,35.74
2023-03-26T14:50:38.830Z,35.91
2023-03-26T14:53:55.404Z,35.71
2023-03-26T14:57:40.197Z,35.28
2023-03-26T15:01:26.305Z,35.42
2023-03-26T15:05:14.180Z,35.86
2023-03-26T15:09:04.502Z,35.03
2023-03-26T15:12:41.503Z,35.46
2023-03-26T15:16:34.390Z,35.12
2023-03-26T15:20:48.120Z,33.76
2023-03-26T15:25:02.102Z,34.40
2023-03-26T15:28:55.520Z,33.08
2023-03-26T15:32:59.156Z,32.94
2023-03-26T15:36:56.635Z,33.74
2023-03-26T15:40:49.321Z,33.04
2023-03-26T15:44:31.692Z,32.69
2023-03-26T15:48:01.311Z,33.11
2023-03-26T15:51:46.406Z,33.80
2023-03-26T15:55:07.360Z,33.98
2023-03-26T15:58:28.137Z,34.54
2023-03-26T16:02:02.880Z,34.36
2023-03-26T16:05:48.058Z,34.95
2023-03-26T16:09:17.343Z,34.92
2023-03-26T16:12:41.743Z,35.15
2023-03-26T16:15:58.305Z,35.25
2023-03-26T16:19:41.496Z,35.31
2023-03-26T16:23:03.864Z,35.32
2023-03-26T16:26:26.230Z,35.37
2023-03-26T16:29:34.466Z,35.08
2023-03-26T16:32:48.322Z,35.50
2023-03-26T16:36:18.794Z,35.37
2023-03-26T16:39:44.553Z,35.76
2023-03-26T16:42:58.029Z,35.94
2023-03-26T16:46:26.676Z,36.69
2023-03-26T16:50:08.431Z,36.28
2023-03-26T16:53:41.803Z,36.69
2023-03-26T16:57:08.263Z,36.87
2023-03-26T17:00:43.282Z,37.16
2023-03-26T17:04:02.800Z,37.52
2023-03-26T17:07:24.676Z,37.50
2023-03-26T17:10:43.794Z,37.72
2023-03-26T17:14:10.579Z,37.75
2023-03-26T17:17:48.857Z,38.01
2023-03-26T17:21:07.479Z,37.94
2023-03-26T17:24:30.838Z,37.78
2023-03-26T17:28:32.526Z,38.03
2023-03-26T17:31:48.461Z,38.40
2023-03-26T17:35:07.147Z,38.52
2023-03-26T17:39:00.594Z,38.85
2023-03-26T17:42:29.296Z,39.30
2023-03-26T17:45:41.108Z,39.52
2023-03-26T17:49:04.610Z,39.75
2023-03-26T17:52:26.977Z,39.72
2023-03-26T17:55:42.304Z,39.37
2023-03-26T17:58:54.971Z,39.37
2023-03-26T18:02:07.666Z,39.20
2023-03-26T18:05:21.774Z,39.79
2023-03-26T18:08:52.295Z,39.78
2023-03-26T18:12:50.656Z,39.16
2023-03-26T18:16:19.201Z,39.63
2023-03-26T18:19:26.794Z,39.07
2023-03-26T18:22:37.825Z,38.46
2023-03-26T18:25:44.274Z,38.99
2023-03-26T18:28:57.168Z,38.99
2023-03-26T18:32:07.619Z,39.57
2023-03-26T18:58:30.683Z,45.65
2023-03-26T19:01:41.135Z,45.42
2023-03-26T19:04:50.371Z,45.11
2023-03-26T19:07:59.864Z,45.20
2023-03-26T19:11:06.480Z,45.15
2023-03-26T19:14:26.344Z,45.14
2023-03-26T19:17:41.634Z,45.23
2023-03-26T19:20:52.618Z,45.51
2023-03-26T19:24:00.003Z,45.87
2023-03-26T19:27:08.090Z,45.80
2023-03-26T19:30:34.128Z,46.87
2023-03-26T19:33:46.324Z,47.98
2023-03-26T19:36:58.485Z,48.18
2023-03-26T19:40:16.762Z,48.67
2023-03-26T19:43:23.297Z,49.13
2023-03-26T19:46:53.015Z,49.49
2023-03-26T19:50:25.037Z,50.28
2023-03-26T19:53:40.780Z,51.54
2023-03-26T19:56:46.819Z,51.91
2023-03-26T19:59:55.677Z,52.21
2023-03-26T20:03:04.365Z,52.34
2023-03-26T20:06:15.305Z,52.40
2023-03-26T20:09:21.605Z,52.33
2023-03-26T20:12:28.304Z,51.81
2023-03-26T20:15:39.534Z,52.28
2023-03-26T20:18:50.935Z,52.53
2023-03-26T20:21:57.080Z,51.87
2023-03-26T20:25:03.920Z,52.15
2023-03-26T20:28:10.303Z,52.60
2023-03-26T20:31:22.638Z,52.87
2023-03-26T20:34:32.309Z,53.28
2023-03-26T20:37:39.382Z,53.43
2023-03-26T20:40:46.429Z,54.08
2023-03-26T20:43:54.004Z,55.51
2023-03-26T20:46:59.967Z,56.24
2023-03-26T20:50:16.367Z,55.92
2023-03-26T20:53:23.964Z,55.89
2023-03-26T20:56:31.328Z,56.31
2023-03-26T20:59:40.728Z,56.57
2023-03-26T21:02:49.432Z,56.55
2023-03-26T21:06:05.111Z,56.26
2023-03-26T21:09:18.269Z,56.24
2023-03-26T21:12:45.264Z,56.01
2023-03-26T21:15:54.084Z,55.84
2023-03-26T21:19:05.542Z,55.95
2023-03-26T21:22:33.824Z,56.54
2023-03-26T21:25:53.140Z,56.76
2023-03-26T21:29:04.104Z,57.02
2023-03-26T21:32:17.047Z,57.04
2023-03-26T21:35:28.830Z,56.88
2023-03-26T21:38:39.933Z,56.91
2023-03-26T21:42:04.797Z,56.86
2023-03-26T21:45:15.521Z,56.64
2023-03-26T21:48:23.793Z,57.12
2023-03-26T21:51:30.966Z,57.25
2023-03-26T21:54:43.345Z,57.14
2023-03-26T21:58:30.662Z,56.95
2023-03-26T22:01:53.955Z,57.14
2023-03-26T22:05:11.157Z,56.93
2023-03-26T22:08:31.656Z,56.82
2023-03-26T22:11:41.811Z,56.71
2023-03-26T22:14:48.542Z,56.66
2023-03-26T22:17:56.541Z,56.87
2023-03-26T22:21:04.853Z,56.87
2023-03-26T22:24:11.206Z,57.43
2023-03-26T22:27:20.809Z,57.44
2023-03-26T22:30:27.452Z,56.84
2023-03-26T22:33:35.960Z,56.32
2023-03-26T22:36:42.019Z,56.70
2023-03-26T22:39:48.791Z,56.81
2023-03-26T22:42:57.486Z,56.99
2023-03-26T22:46:04.258Z,56.57
2023-03-26T22:49:10.499Z,56.56
2023-03-26T22:52:17.411Z,56.44
2023-03-26T22:55:28.864Z,56.34
2023-03-26T22:58:39.468Z,56.33
2023-03-26T23:01:45.850Z,56.16
2023-03-26T23:04:52.916Z,56.04
2023-03-26T23:07:58.897Z,56.21
2023-03-26T23:11:06.332Z,56.58
2023-03-26T23:14:14.963Z,56.84
2023-03-26T23:17:22.667Z,57.16
2023-03-26T23:20:30.303Z,57.05
2023-03-26T23:23:39.178Z,57.42
2023-03-26T23:26:50.573Z,57.75
2023-03-26T23:30:04.653Z,57.98
2023-03-26T23:33:11.388Z,57.91
2023-03-26T23:36:23.915Z,57.69
2023-03-26T23:39:31.443Z,57.53
2023-03-26T23:42:38.229Z,57.72
2023-03-26T23:45:48.211Z,57.85
2023-03-26T23:49:00.202Z,57.74
2023-03-26T23:52:07.233Z,57.93
2023-03-26T23:55:14.217Z,57.78
2023-03-26T23:58:21.795Z,57.79
